createdAt,value
2022-09-02T00:00:40.085Z,88542.09
2022-09-02T00:03:25.067Z,88532.50
2022-09-02T00:06:10.012Z,88532.09
2022-09-02T00:08:54.853Z,88530.44
2022-09-02T00:11:39.616Z,88534.31
2022-09-02T00:14:24.817Z,88532.09
2022-09-02T00:17:09.693Z,88533.88
2022-09-02T00:19:56.197Z,88525.28
2022-09-02T00:22:41.348Z,88526.53
2022-09-02T00:25:26.165Z,88519.72
2022-09-02T00:28:10.996Z,88521.13
2022-09-02T00:30:55.979Z,88526.41
2022-09-02T00:33:40.757Z,88519.72
2022-09-02T00:36:25.744Z,88517.38
2022-09-02T00:39:10.419Z,88520.84
2022-09-02T00:41:55.347Z,88518.75
2022-09-02T00:44:40.094Z,88510.16
2022-09-02T00:47:25.086Z,88514.03
2022-09-02T00:50:09.813Z,88520.13
2022-09-02T00:52:54.719Z,88519.59
2022-09-02T00:55:39.359Z,88518.06
2022-09-02T00:58:24.126Z,88519.59
2022-09-02T01:01:09.127Z,88520.13
2022-09-02T01:03:54.237Z,88508.63
2022-09-02T01:06:38.974Z,88511.91
2022-09-02T01:09:23.680Z,88510.38
2022-09-02T01:12:08.777Z,88508.72
2022-09-02T01:14:53.540Z,88515.06
2022-09-02T01:17:38.460Z,88513.53
2022-09-02T01:20:25.441Z,88517.94
2022-09-02T01:23:10.617Z,88521.13
2022-09-02T01:25:55.394Z,88519.03
2022-09-02T01:28:40.083Z,88520.53
2022-09-02T01:31:25.023Z,88512.97
2022-09-02T01:34:10.302Z,88516.56
2022-09-02T01:36:56.105Z,88522.50
2022-09-02T01:39:40.959Z,88521.25
2022-09-02T01:42:25.663Z,88512.91
2022-09-02T01:45:10.422Z,88517.47
2022-09-02T01:47:55.193Z,88521.88
2022-09-02T01:50:43.810Z,88516.34
2022-09-02T01:53:32.069Z,88512.47
2022-09-02T01:56:16.661Z,88520.81
2022-09-02T01:59:01.431Z,88515.38
2022-09-02T02:01:46.252Z,88512.06
2022-09-02T02:04:31.489Z,88514.94
2022-09-02T02:07:16.210Z,88514.25
2022-09-02T02:10:01.100Z,88508.84
2022-09-02T02:12:45.980Z,88507.84
2022-09-02T02:18:14.804Z,88500.91
2022-09-02T02:21:00.049Z,88510.56
2022-09-02T02:23:44.893Z,88514.19
2022-09-02T02:26:29.552Z,88509.69
2022-09-02T02:29:14.542Z,88500.59
2022-09-02T02:31:59.251Z,88503.44
2022-09-02T02:34:44.173Z,88507.56
2022-09-02T02:37:28.958Z,88503.00
2022-09-02T02:40:13.842Z,88504.53
2022-09-02T02:42:58.591Z,88503.16
2022-09-02T02:45:43.353Z,88506.47
2022-09-02T02:48:28.313Z,88504.53
2022-09-02T02:51:13.009Z,88501.50
2022-09-02T02:53:58.994Z,88508.03
2022-09-02T02:56:44.119Z,88500.38
2022-09-02T02:59:29.068Z,88510.88
2022-09-02T03:02:14.064Z,88513.34
2022-09-02T03:04:59.278Z,88507.00
2022-09-02T03:07:44.277Z,88498.31
2022-09-02T03:10:29.047Z,88504.78
2022-09-02T03:13:13.994Z,88506.59
2022-09-02T03:15:58.723Z,88495.91
2022-09-02T03:18:44.149Z,88500.88
2022-09-02T03:21:28.957Z,88502.47
2022-09-02T03:24:18.087Z,88503.34
2022-09-02T03:27:03.061Z,88498.06
2022-09-02T03:29:47.882Z,88497.22
2022-09-02T03:32:32.748Z,88493.38
2022-09-02T03:35:17.529Z,88493.91
2022-09-02T03:38:02.363Z,88495.44
2022-09-02T03:40:47.239Z,88497.09
2022-09-02T03:43:31.991Z,88491.53
2022-09-02T03:46:17.028Z,88494.84
2022-09-02T03:49:01.832Z,88490.97
2022-09-02T03:51:46.680Z,88486.50
2022-09-02T03:54:31.427Z,88490.78
2022-09-02T03:57:16.137Z,88493.72
2022-09-02T04:00:01.931Z,88483.59
2022-09-02T04:02:50.105Z,88489.94
2022-09-02T04:05:35.303Z,88490.84
2022-09-02T04:08:19.972Z,88484.31
2022-09-02T04:11:04.834Z,88483.22
2022-09-02T04:13:49.428Z,88486.69
2022-09-02T04:16:34.318Z,88483.34
2022-09-02T04:19:19.714Z,88485.75
2022-09-02T04:22:04.455Z,88472.38
2022-09-02T04:24:49.259Z,88478.72
2022-09-02T04:27:34.213Z,88481.34
2022-09-02T04:30:19.059Z,88474.00
2022-09-02T04:33:03.829Z,88475.84
2022-09-02T04:35:48.733Z,88482.63
2022-09-02T04:38:33.542Z,88477.38
2022-09-02T04:41:18.496Z,88475.59
2022-09-02T04:44:03.181Z,88482.00
2022-09-02T04:46:48.579Z,88482.69
2022-09-02T04:49:35.376Z,88472.34
2022-09-02T04:52:20.097Z,88476.75
2022-09-02T04:55:04.838Z,88474.41
2022-09-02T04:57:49.525Z,88477.59
2022-09-02T05:00:34.284Z,88477.91
2022-09-02T05:03:19.330Z,88474.88
2022-09-02T05:06:04.511Z,88481.38
2022-09-02T05:08:49.458Z,88478.03
2022-09-02T05:11:34.181Z,88481.22
2022-09-02T05:14:19.010Z,88485.22
2022-09-02T05:17:07.450Z,88480.44
2022-09-02T05:19:52.985Z,88479.72
2022-09-02T05:22:37.777Z,88478.19
2022-09-02T05:25:22.577Z,88479.03
2022-09-02T05:28:07.380Z,88483.22
2022-09-02T05:30:52.077Z,88477.78
2022-09-02T05:33:36.781Z,88476.41
2022-09-02T05:36:21.482Z,88481.38
2022-09-02T05:39:06.273Z,88475.56
2022-09-02T05:41:50.914Z,88477.09
2022-09-02T05:44:35.827Z,88476.03
2022-09-02T05:47:20.570Z,88479.50
2022-09-02T05:50:05.332Z,88476.19
2022-09-02T05:52:52.634Z,88485.56
2022-09-02T05:55:37.235Z,88486.59
2022-09-02T05:58:22.048Z,88490.38
2022-09-02T06:01:06.666Z,88492.06
2022-09-02T06:03:51.618Z,88501.19
2022-09-02T06:06:36.467Z,88499.25
2022-09-02T06:09:21.348Z,88502.75
2022-09-02T06:12:06.320Z,88483.97
2022-09-02T06:14:50.898Z,88485.72
2022-09-02T06:17:35.685Z,88486.97
2022-09-02T06:20:20.358Z,88486.94
2022-09-02T06:23:05.588Z,88490.44
2022-09-02T06:25:50.329Z,88488.34
2022-09-02T06:28:35.202Z,88492.16
2022-09-02T06:31:20.067Z,88494.69
2022-09-02T06:34:05.269Z,88493.53
2022-09-02T06:36:50.098Z,88497.03
2022-09-02T06:39:36.320Z,88491.13
2022-09-02T06:42:21.275Z,88490.22
2022-09-02T06:45:05.840Z,88493.28
2022-09-02T06:47:50.607Z,88496.09
2022-09-02T06:50:35.236Z,88490.22
2022-09-02T06:53:20.024Z,88495.84
2022-09-02T06:56:05.363Z,88483.25
2022-09-02T06:58:49.944Z,88490.78
2022-09-02T07:01:34.986Z,88486.44
2022-09-02T07:04:20.053Z,88483.69
2022-09-02T07:07:05.033Z,88482.06
2022-09-02T07:09:49.851Z,88485.50
2022-09-02T07:12:34.449Z,88482.06
2022-09-02T07:15:19.212Z,88486.59
2022-09-02T07:18:03.924Z,88481.47
2022-09-02T07:20:48.577Z,88482.56
2022-09-02T07:23:34.654Z,88482.00
2022-09-02T07:26:21.758Z,88484.88
2022-09-02T07:29:06.482Z,88486.13
2022-09-02T07:31:51.175Z,88482.03
2022-09-02T07:34:35.945Z,88484.41
2022-09-02T07:37:20.617Z,88482.56
2022-09-02T07:40:05.514Z,88472.41
2022-09-02T07:42:50.212Z,88470.78
2022-09-02T07:45:35.565Z,88467.41
2022-09-02T07:48:20.123Z,88475.28
2022-09-02T07:51:05.046Z,88483.22
2022-09-02T07:53:49.825Z,88473.00
2022-09-02T07:56:34.574Z,88479.44
2022-09-02T07:59:19.382Z,88477.66
2022-09-02T08:02:04.174Z,88479.00
2022-09-02T08:04:48.826Z,88471.09
2022-09-02T08:07:33.677Z,88473.50
2022-09-02T08:10:18.384Z,88474.13
2022-09-02T08:13:03.062Z,88471.63
2022-09-02T08:15:50.785Z,88478.28
2022-09-02T08:18:35.855Z,88470.56
2022-09-02T08:21:20.500Z,88478.56
2022-09-02T08:24:05.159Z,88477.13
2022-09-02T08:26:49.841Z,88473.88
2022-09-02T08:29:34.593Z,88474.47
2022-09-02T08:32:19.292Z,88473.94
2022-09-02T08:35:04.002Z,88475.28
2022-09-02T08:37:48.724Z,88471.34
2022-09-02T08:40:33.533Z,88469.56
2022-09-02T08:43:18.763Z,88458.75
2022-09-02T08:46:03.372Z,88463.34
2022-09-02T08:48:48.532Z,88462.84
2022-09-02T08:51:37.697Z,88462.16
2022-09-02T08:54:22.832Z,88460.41
2022-09-02T08:57:07.474Z,88448.78
2022-09-02T08:59:53.177Z,88444.06
2022-09-02T09:02:40.397Z,88448.81
2022-09-02T09:05:28.173Z,88448.78
2022-09-02T09:08:14.725Z,88447.97
2022-09-02T09:11:00.031Z,88438.59
2022-09-02T09:13:44.819Z,88440.19
2022-09-02T09:16:30.311Z,88438.59
2022-09-02T09:19:17.302Z,88438.16
2022-09-02T09:22:02.269Z,88430.34
2022-09-02T09:24:46.978Z,88433.53
2022-09-02T09:27:31.713Z,88429.66
2022-09-02T09:30:16.629Z,88426.13
2022-09-02T09:33:01.269Z,88422.09
2022-09-02T09:35:46.084Z,88419.09
2022-09-02T09:38:30.865Z,88413.16
2022-09-02T09:41:16.112Z,88425.53
2022-09-02T09:44:00.731Z,88421.28
2022-09-02T09:46:45.614Z,88414.81
2022-09-02T09:49:30.330Z,88416.78
2022-09-02T09:52:14.999Z,88406.97
2022-09-02T09:54:59.779Z,88414.03
2022-09-02T09:57:45.963Z,88403.16
2022-09-02T10:00:31.351Z,88400.88
2022-09-02T10:03:16.427Z,88409.03
2022-09-02T10:06:01.206Z,88407.75
2022-09-02T10:08:45.940Z,88398.72
2022-09-02T10:11:30.702Z,88386.94
2022-09-02T10:14:15.392Z,88388.38
2022-09-02T10:17:00.250Z,88392.63
2022-09-02T10:19:45.039Z,88394.00
2022-09-02T10:22:39.200Z,88395.50
2022-09-02T10:25:34.669Z,88394.41
2022-09-02T10:28:19.477Z,88385.75
2022-09-02T10:31:04.209Z,88390.00
2022-09-02T10:33:49.023Z,88386.31
2022-09-02T10:36:33.740Z,88382.53
2022-09-02T10:39:18.537Z,88385.16
2022-09-02T10:42:03.243Z,88379.31
2022-09-02T10:44:48.025Z,88378.34
2022-09-02T10:47:32.633Z,88369.25
2022-09-02T10:50:17.488Z,88368.34
2022-09-02T10:53:03.742Z,88368.47
2022-09-02T10:55:50.962Z,88364.16
2022-09-02T10:58:35.735Z,88364.44
2022-09-02T11:01:20.497Z,88358.75
2022-09-02T11:04:05.819Z,88346.66
2022-09-02T11:07:02.545Z,88350.06
2022-09-02T11:09:47.897Z,88342.81
2022-09-02T11:12:32.611Z,88338.28
2022-09-02T11:15:17.291Z,88326.03
2022-09-02T11:18:02.135Z,88329.78
2022-09-02T11:20:47.253Z,88323.69
2022-09-02T11:23:32.106Z,88310.34
2022-09-02T11:26:16.847Z,88313.28
2022-09-02T11:29:02.287Z,88311.84
2022-09-02T11:31:46.983Z,88316.13
2022-09-02T11:34:31.760Z,88300.75
2022-09-02T11:37:19.708Z,88303.97
2022-09-02T11:40:30.579Z,88288.94
2022-09-02T11:43:09.705Z,88300.44
2022-09-02T11:45:54.424Z,88302.38
2022-09-02T11:48:39.670Z,88301.22
2022-09-02T11:51:24.664Z,88285.31
2022-09-02T11:54:09.380Z,88287.28
2022-09-02T11:56:54.841Z,88294.38
2022-09-02T11:59:39.990Z,88286.97
2022-09-02T12:02:24.811Z,88284.41
2022-09-02T12:05:09.837Z,88282.09
2022-09-02T12:07:55.254Z,88286.63
2022-09-02T12:10:40.123Z,88283.00
2022-09-02T12:13:25.018Z,88293.84
2022-09-02T12:16:10.168Z,88281.69
2022-09-02T12:18:55.337Z,88279.28
2022-09-02T12:21:40.166Z,88265.06
2022-09-02T12:24:24.864Z,88276.84
2022-09-02T12:27:11.210Z,88275.16
2022-09-02T12:29:55.885Z,88267.28
2022-09-02T12:32:40.607Z,88269.81
2022-09-02T12:35:25.381Z,88266.03
2022-09-02T12:38:10.489Z,88261.59
2022-09-02T12:40:55.324Z,88274.84
2022-09-02T12:43:40.152Z,88281.75
2022-09-02T12:46:24.959Z,88280.75
2022-09-02T12:49:09.654Z,88279.75
2022-09-02T12:51:54.451Z,88290.34
2022-09-02T12:54:39.145Z,88283.28
2022-09-02T12:57:23.965Z,88281.84
2022-09-02T13:00:10.833Z,88281.16
2022-09-02T13:02:55.655Z,88283.03
2022-09-02T13:05:40.441Z,88285.84
2022-09-02T13:08:25.020Z,88297.56
2022-09-02T13:11:09.766Z,88292.72
2022-09-02T13:13:54.451Z,88281.31
2022-09-02T13:16:39.387Z,88274.50
2022-09-02T13:19:24.076Z,88296.66
2022-09-02T13:22:08.747Z,88289.72
2022-09-02T13:24:55.672Z,88283.25
2022-09-02T13:27:40.324Z,88277.59
2022-09-02T13:30:25.171Z,88276.72
2022-09-02T13:33:09.973Z,88283.47
2022-09-02T13:35:54.710Z,88297.44
2022-09-02T13:38:39.447Z,88291.56
2022-09-02T13:41:24.718Z,88294.09
2022-09-02T13:44:09.468Z,88284.69
2022-09-02T13:46:54.217Z,88285.53
2022-09-02T13:49:39.133Z,88280.56
2022-09-02T13:52:54.848Z,88271.28
2022-09-02T13:55:28.765Z,88259.00
2022-09-02T13:58:13.641Z,88262.03
2022-09-02T14:01:01.897Z,88263.84
2022-09-02T14:03:48.742Z,88267.91
2022-09-02T14:06:33.868Z,88268.50
2022-09-02T14:09:18.483Z,88275.41
2022-09-02T14:12:03.340Z,88273.75
2022-09-02T14:14:48.005Z,88286.91
2022-09-02T14:17:32.849Z,88288.72
2022-09-02T14:20:17.497Z,88288.44
2022-09-02T14:23:02.285Z,88294.28
2022-09-02T14:25:46.976Z,88288.41
2022-09-02T14:28:31.908Z,88302.56
2022-09-02T14:31:18.759Z,88293.28
2022-09-02T14:34:04.074Z,88287.50
2022-09-02T14:36:48.912Z,88288.72
2022-09-02T14:39:33.667Z,88291.63
2022-09-02T14:42:19.123Z,88304.75
2022-09-02T14:45:04.041Z,88292.38
2022-09-02T14:47:48.782Z,88285.00
2022-09-02T14:50:34.009Z,88281.47
2022-09-02T14:53:18.768Z,88292.41
2022-09-02T14:56:03.476Z,88290.88
2022-09-02T14:58:48.301Z,88286.91
2022-09-02T15:01:33.050Z,88289.94
2022-09-02T15:04:17.886Z,88283.38
2022-09-02T15:07:02.700Z,88279.00
2022-09-02T15:09:47.295Z,88289.81
2022-09-02T15:12:31.974Z,88289.66
2022-09-02T15:15:16.540Z,88298.00
2022-09-02T15:18:01.343Z,88300.00
2022-09-02T15:20:46.038Z,88306.53
2022-09-02T15:23:34.653Z,88314.31
2022-09-02T15:26:19.718Z,88322.25
2022-09-02T15:29:04.394Z,88321.47
2022-09-02T15:31:49.111Z,88332.09
2022-09-02T15:34:33.824Z,88325.81
2022-09-02T15:37:18.566Z,88330.81
2022-09-02T15:40:03.327Z,88335.41
2022-09-02T15:42:48.015Z,88336.94
2022-09-02T15:45:32.825Z,88339.53
2022-09-02T15:48:17.644Z,88350.03
2022-09-02T15:53:52.337Z,88341.28
2022-09-02T15:56:37.191Z,88321.09
2022-09-02T15:59:21.817Z,88314.72
2022-09-02T16:02:06.577Z,88327.00
2022-09-02T16:04:51.526Z,88329.16
2022-09-02T16:07:36.779Z,88336.25
2022-09-02T16:10:21.904Z,88337.31
2022-09-02T16:13:06.990Z,88331.78
2022-09-02T16:15:52.095Z,88337.84
2022-09-02T16:18:36.874Z,88336.88
2022-09-02T16:21:21.511Z,88340.88
2022-09-02T16:24:06.765Z,88338.44
2022-09-02T16:26:51.517Z,88342.19
2022-09-02T16:29:36.359Z,88326.13
2022-09-02T16:32:27.248Z,88341.59
2022-09-02T16:35:12.828Z,88343.28
2022-09-02T16:37:57.605Z,88345.38
2022-09-02T16:40:42.293Z,88345.25
2022-09-02T16:43:26.930Z,88346.63
2022-09-02T16:48:56.543Z,88342.72
2022-09-02T16:51:41.487Z,88342.41
2022-09-02T16:54:31.279Z,88350.59
2022-09-02T16:57:17.472Z,88347.59
2022-09-02T17:00:02.223Z,88345.53
2022-09-02T17:02:47.031Z,88344.66
2022-09-02T17:05:32.365Z,88342.69
2022-09-02T17:08:17.151Z,88336.69
2022-09-02T17:11:01.988Z,88342.13
2022-09-02T17:13:46.725Z,88333.66
2022-09-02T17:16:31.607Z,88333.75
2022-09-02T17:19:16.210Z,88336.41
2022-09-02T17:22:00.978Z,88336.66
2022-09-02T17:24:45.960Z,88337.38
2022-09-02T17:27:31.383Z,88336.09
2022-09-02T17:30:16.276Z,88326.13
2022-09-02T17:33:01.022Z,88330.75
2022-09-02T17:35:45.808Z,88331.94
2022-09-02T17:38:30.480Z,88318.47
2022-09-02T17:41:15.265Z,88320.34
2022-09-02T17:44:00.529Z,88322.13
2022-09-02T17:46:45.257Z,88324.38
2022-09-02T17:49:30.296Z,88322.03
2022-09-02T17:52:15.070Z,88325.97
2022-09-02T17:54:59.888Z,88320.75
2022-09-02T17:57:44.498Z,88319.25
2022-09-02T18:00:29.372Z,88315.91
2022-09-02T18:03:17.009Z,88325.03
2022-09-02T18:06:04.223Z,88328.00
2022-09-02T18:08:49.010Z,88330.72
2022-09-02T18:11:34.137Z,88317.50
2022-09-02T18:14:19.076Z,88317.78
2022-09-02T18:17:03.838Z,88312.44
2022-09-02T18:19:48.967Z,88311.63
2022-09-02T18:22:35.770Z,88317.03
2022-09-02T18:25:21.016Z,88313.13
2022-09-02T18:28:06.334Z,88307.97
2022-09-02T18:30:51.445Z,88310.06
2022-09-02T18:33:36.267Z,88304.31
2022-09-02T18:36:21.093Z,88308.81
2022-09-02T18:39:05.970Z,88304.97
2022-09-02T18:41:50.820Z,88306.34
2022-09-02T18:44:35.653Z,88307.22
2022-09-02T18:47:20.318Z,88325.53
2022-09-02T18:50:05.076Z,88312.09
2022-09-02T18:52:49.996Z,88328.84
2022-09-02T18:55:34.772Z,88325.41
2022-09-02T18:58:19.535Z,88331.41
2022-09-02T19:01:04.755Z,88334.72
2022-09-02T19:03:50.010Z,88337.38
2022-09-02T19:06:34.857Z,88339.66
2022-09-02T19:09:19.615Z,88346.34
2022-09-02T19:12:04.460Z,88343.31
2022-09-02T19:14:49.140Z,88338.66
2022-09-02T19:17:33.945Z,88335.44
2022-09-02T19:20:18.670Z,88340.47
2022-09-02T19:23:03.479Z,88337.91
2022-09-02T19:25:48.193Z,88341.38
2022-09-02T19:28:32.934Z,88342.88
2022-09-02T19:31:18.382Z,88341.88
2022-09-02T19:34:03.581Z,88340.44
2022-09-02T19:36:48.238Z,88340.69
2022-09-02T19:39:32.924Z,88340.84
2022-09-02T19:42:17.698Z,88349.84
2022-09-02T19:45:02.929Z,88343.16
2022-09-02T19:48:06.708Z,88347.28
2022-09-02T19:50:52.331Z,88354.19
2022-09-02T19:53:37.112Z,88357.88
2022-09-02T19:56:21.952Z,88356.47
2022-09-02T19:59:06.643Z,88349.09
2022-09-02T20:01:51.487Z,88351.41
2022-09-02T20:04:36.095Z,88342.75
2022-09-02T20:07:20.911Z,88348.59
2022-09-02T20:10:05.754Z,88365.25
2022-09-02T20:12:50.518Z,88362.94
2022-09-02T20:15:38.025Z,88363.97
2022-09-02T20:18:22.792Z,88363.28
2022-09-02T20:21:07.727Z,88368.19
2022-09-02T20:23:52.433Z,88373.63
2022-09-02T20:26:37.166Z,88368.09
2022-09-02T20:29:21.943Z,88363.41
2022-09-02T20:32:06.840Z,88361.59
2022-09-02T20:34:51.741Z,88369.63
2022-09-02T20:37:36.518Z,88370.03
2022-09-02T20:40:21.224Z,88370.16
2022-09-02T20:43:06.024Z,88373.53
2022-09-02T20:45:50.709Z,88378.13
2022-09-02T20:48:35.408Z,88383.44
2022-09-02T20:51:20.241Z,88382.41
2022-09-02T20:54:04.897Z,88381.59
2022-09-02T20:56:49.783Z,88382.38
2022-09-02T20:59:34.649Z,88389.25
2022-09-02T21:02:19.420Z,88377.59
2022-09-02T21:05:04.799Z,88374.69
2022-09-02T21:07:49.421Z,88369.03
2022-09-02T21:10:34.222Z,88365.00
2022-09-02T21:13:18.876Z,88374.25
2022-09-02T21:16:03.796Z,88378.75
2022-09-02T21:18:49.019Z,88378.03
2022-09-02T21:21:33.777Z,88379.72
2022-09-02T21:24:18.465Z,88390.78
2022-09-02T21:27:03.277Z,88388.78
2022-09-02T21:29:48.016Z,88397.03
2022-09-02T21:32:32.820Z,88402.56
2022-09-02T21:35:17.601Z,88405.28
2022-09-02T21:38:02.250Z,88409.06
2022-09-02T21:40:46.955Z,88422.38
2022-09-02T21:43:31.796Z,88429.00
2022-09-02T21:46:16.480Z,88440.78
2022-09-02T21:49:01.134Z,88453.66
2022-09-02T21:51:45.808Z,88471.56
2022-09-02T21:54:30.455Z,88480.72
2022-09-02T21:57:15.232Z,88478.53
2022-09-02T21:59:59.920Z,88473.25
2022-09-02T22:02:44.761Z,88463.53
2022-09-02T22:05:29.525Z,88493.88
2022-09-02T22:08:14.269Z,88481.75
2022-09-02T22:10:59.165Z,88491.66
2022-09-02T22:13:43.875Z,88500.28
2022-09-02T22:16:28.914Z,88505.69
2022-09-02T22:19:13.564Z,88511.53
2022-09-02T22:21:58.403Z,88520.59
2022-09-02T22:24:43.176Z,88511.00
2022-09-02T22:27:27.944Z,88516.50
2022-09-02T22:30:12.663Z,88511.31
2022-09-02T22:32:57.403Z,88507.16
2022-09-02T22:35:42.213Z,88501.47
2022-09-02T22:38:26.837Z,88494.47
2022-09-02T22:41:11.814Z,88488.72
2022-09-02T22:43:57.093Z,88486.28
2022-09-02T22:46:41.865Z,88485.28
2022-09-02T22:49:26.890Z,88481.94
2022-09-02T22:52:11.704Z,88472.16
2022-09-02T22:54:56.315Z,88477.53
2022-09-02T22:57:41.094Z,88483.50
2022-09-02T23:00:25.785Z,88482.16
2022-09-02T23:03:10.534Z,88493.88
2022-09-02T23:05:55.324Z,88507.53
2022-09-02T23:08:40.143Z,88505.44
2022-09-02T23:11:24.926Z,88505.72
2022-09-02T23:14:09.667Z,88506.25
2022-09-02T23:16:54.482Z,88503.50
2022-09-02T23:19:39.341Z,88504.03
2022-09-02T23:22:24.181Z,88495.44
2022-09-02T23:25:09.425Z,88494.03
2022-09-02T23:27:54.121Z,88496.00
2022-09-02T23:30:39.094Z,88486.63
2022-09-02T23:33:23.747Z,88479.44
2022-09-02T23:36:08.600Z,88475.94
2022-09-02T23:38:53.402Z,88485.06
2022-09-02T23:41:38.310Z,88483.03
2022-09-02T23:44:23.553Z,88487.22
2022-09-02T23:47:08.332Z,88473.75
2022-09-02T23:49:52.920Z,88466.88
2022-09-02T23:52:38.709Z,88463.59
2022-09-02T23:55:23.361Z,88462.19
2022-09-02T23:58:08.132Z,88454.56
